sensor_id;sensor_type;location;lat;lon;timestamp;temperature;humidity
9820;DHT22;4949;48.482;9.206;2024-03-22T00:03:53;11.80;96.80
9820;DHT22;4949;48.482;9.206;2024-03-22T00:08:56;11.30;96.80
9820;DHT22;4949;48.482;9.206;2024-03-22T00:13:57;11.20;96.90
9820;DHT22;4949;48.482;9.206;2024-03-22T00:18:58;11.10;97.00
9820;DHT22;4949;48.482;9.206;2024-03-22T00:23:59;11.10;97.20
9820;DHT22;4949;48.482;9.206;2024-03-22T00:29:01;10.90;97.10
9820;DHT22;4949;48.482;9.206;2024-03-22T00:34:02;10.90;97.20
9820;DHT22;4949;48.482;9.206;2024-03-22T00:39:05;10.80;97.10
9820;DHT22;4949;48.482;9.206;2024-03-22T00:44:06;11.00;97.30
9820;DHT22;4949;48.482;9.206;2024-03-22T00:49:07;10.70;97.30
9820;DHT22;4949;48.482;9.206;2024-03-22T00:54:10;10.60;97.40
9820;DHT22;4949;48.482;9.206;2024-03-22T00:59:11;10.50;97.40
9820;DHT22;4949;48.482;9.206;2024-03-22T01:04:14;10.40;97.60
9820;DHT22;4949;48.482;9.206;2024-03-22T01:09:14;10.30;97.60
9820;DHT22;4949;48.482;9.206;2024-03-22T01:14:15;10.30;97.80
9820;DHT22;4949;48.482;9.206;2024-03-22T01:19:16;10.20;97.60
9820;DHT22;4949;48.482;9.206;2024-03-22T01:24:17;10.30;97.60
9820;DHT22;4949;48.482;9.206;2024-03-22T01:29:17;10.50;97.60
9820;DHT22;4949;48.482;9.206;2024-03-22T01:34:18;10.30;97.40
9820;DHT22;4949;48.482;9.206;2024-03-22T01:39:20;10.20;97.40
9820;DHT22;4949;48.482;9.206;2024-03-22T01:44:28;10.20;97.50
9820;DHT22;4949;48.482;9.206;2024-03-22T01:49:30;10.30;97.20
9820;DHT22;4949;48.482;9.206;2024-03-22T01:54:31;10.30;97.20
9820;DHT22;4949;48.482;9.206;2024-03-22T01:59:32;10.40;96.80
9820;DHT22;4949;48.482;9.206;2024-03-22T02:04:36;10.70;96.60
9820;DHT22;4949;48.482;9.206;2024-03-22T02:09:37;10.40;96.50
9820;DHT22;4949;48.482;9.206;2024-03-22T02:14:38;10.20;97.00
9820;DHT22;4949;48.482;9.206;2024-03-22T02:19:39;10.40;97.20
9820;DHT22;4949;48.482;9.206;2024-03-22T02:24:40;10.40;97.30
9820;DHT22;4949;48.482;9.206;2024-03-22T02:29:40;10.00;97.20
9820;DHT22;4949;48.482;9.206;2024-03-22T02:34:41;10.10;97.50
9820;DHT22;4949;48.482;9.206;2024-03-22T02:39:44;9.90;98.00
9820;DHT22;4949;48.482;9.206;2024-03-22T02:44:48;9.80;98.10
9820;DHT22;4949;48.482;9.206;2024-03-22T02:49:51;9.80;98.10
9820;DHT22;4949;48.482;9.206;2024-03-22T02:54:51;10.20;98.00
9820;DHT22;4949;48.482;9.206;2024-03-22T02:59:52;9.60;98.30
9820;DHT22;4949;48.482;9.206;2024-03-22T03:04:55;9.70;98.40
9820;DHT22;4949;48.482;9.206;2024-03-22T03:09:58;9.50;98.60
9820;DHT22;4949;48.482;9.206;2024-03-22T03:14:59;9.70;98.90
9820;DHT22;4949;48.482;9.206;2024-03-22T03:20:04;9.20;98.80
9820;DHT22;4949;48.482;9.206;2024-03-22T03:25:08;9.10;98.90
9820;DHT22;4949;48.482;9.206;2024-03-22T03:30:09;9.00;99.10
9820;DHT22;4949;48.482;9.206;2024-03-22T03:35:13;9.00;99.20
9820;DHT22;4949;48.482;9.206;2024-03-22T03:40:13;8.80;99.20
9820;DHT22;4949;48.482;9.206;2024-03-22T03:45:17;8.70;99.40
9820;DHT22;4949;48.482;9.206;2024-03-22T03:50:17;8.60;99.80
9820;DHT22;4949;48.482;9.206;2024-03-22T03:55:18;9.10;99.90
9820;DHT22;4949;48.482;9.206;2024-03-22T04:00:20;9.00;99.90
9820;DHT22;4949;48.482;9.206;2024-03-22T04:05:21;8.50;99.90
9820;DHT22;4949;48.482;9.206;2024-03-22T04:10:24;8.80;99.90
9820;DHT22;4949;48.482;9.206;2024-03-22T04:15:24;8.50;99.90
9820;DHT22;4949;48.482;9.206;2024-03-22T04:20:27;8.50;99.90
9820;DHT22;4949;48.482;9.206;2024-03-22T04:25:28;8.50;99.90
9820;DHT22;4949;48.482;9.206;2024-03-22T04:30:29;8.40;99.90
9820;DHT22;4949;48.482;9.206;2024-03-22T04:35:29;8.50;99.90
9820;DHT22;4949;48.482;9.206;2024-03-22T04:40:33;8.40;99.90
9820;DHT22;4949;48.482;9.206;2024-03-22T04:45:33;8.30;99.90
9820;DHT22;4949;48.482;9.206;2024-03-22T04:50:34;8.20;99.90
9820;DHT22;4949;48.482;9.206;2024-03-22T04:55:35;8.20;99.90
9820;DHT22;4949;48.482;9.206;2024-03-22T05:00:36;8.20;99.90
9820;DHT22;4949;48.482;9.206;2024-03-22T05:05:38;8.30;99.90
9820;DHT22;4949;48.482;9.206;2024-03-22T05:10:39;8.20;99.90
9820;DHT22;4949;48.482;9.206;2024-03-22T05:15:39;8.20;99.90
9820;DHT22;4949;48.482;9.206;2024-03-22T05:20:40;8.10;99.90
9820;DHT22;4949;48.482;9.206;2024-03-22T05:25:42;8.10;99.90
9820;DHT22;4949;48.482;9.206;2024-03-22T05:30:43;8.10;99.90
9820;DHT22;4949;48.482;9.206;2024-03-22T05:35:43;8.20;99.90
9820;DHT22;4949;48.482;9.206;2024-03-22T05:40:46;8.10;99.90
9820;DHT22;4949;48.482;9.206;2024-03-22T05:45:48;8.20;99.90
9820;DHT22;4949;48.482;9.206;2024-03-22T05:50:51;8.20;99.90
9820;DHT22;4949;48.482;9.206;2024-03-22T05:55:53;8.30;99.90
9820;DHT22;4949;48.482;9.206;2024-03-22T06:00:53;8.30;99.90
9820;DHT22;4949;48.482;9.206;2024-03-22T06:05:54;8.90;99.90
9820;DHT22;4949;48.482;9.206;2024-03-22T06:11:00;8.30;99.90
9820;DHT22;4949;48.482;9.206;2024-03-22T06:16:02;8.40;99.90
9820;DHT22;4949;48.482;9.206;2024-03-22T06:21:04;8.50;99.90
9820;DHT22;4949;48.482;9.206;2024-03-22T06:26:05;8.60;99.90
9820;DHT22;4949;48.482;9.206;2024-03-22T06:31:06;8.60;99.90
9820;DHT22;4949;48.482;9.206;2024-03-22T06:36:07;8.70;99.90
9820;DHT22;4949;48.482;9.206;2024-03-22T06:41:10;8.80;99.90
9820;DHT22;4949;48.482;9.206;2024-03-22T06:46:11;8.80;99.90
9820;DHT22;4949;48.482;9.206;2024-03-22T06:51:11;8.90;99.90
9820;DHT22;4949;48.482;9.206;2024-03-22T06:56:15;9.00;99.90
9820;DHT22;4949;48.482;9.206;2024-03-22T07:01:15;9.00;99.90
9820;DHT22;4949;48.482;9.206;2024-03-22T07:06:16;9.10;99.90
9820;DHT22;4949;48.482;9.206;2024-03-22T07:11:17;9.30;99.90
9820;DHT22;4949;48.482;9.206;2024-03-22T07:16:18;9.40;99.90
9820;DHT22;4949;48.482;9.206;2024-03-22T07:21:19;9.50;99.90
9820;DHT22;4949;48.482;9.206;2024-03-22T07:26:20;9.60;99.90
9820;DHT22;4949;48.482;9.206;2024-03-22T07:31:21;9.80;99.90
9820;DHT22;4949;48.482;9.206;2024-03-22T07:36:22;9.80;99.90
9820;DHT22;4949;48.482;9.206;2024-03-22T07:41:23;9.90;99.90
9820;DHT22;4949;48.482;9.206;2024-03-22T07:46:26;10.10;99.30
9820;DHT22;4949;48.482;9.206;2024-03-22T07:51:26;10.10;99.00
9820;DHT22;4949;48.482;9.206;2024-03-22T07:56:27;10.30;98.80
9820;DHT22;4949;48.482;9.206;2024-03-22T08:01:28;10.40;98.90
9820;DHT22;4949;48.482;9.206;2024-03-22T08:06:29;10.50;98.60
9820;DHT22;4949;48.482;9.206;2024-03-22T08:11:30;10.60;98.50
9820;DHT22;4949;48.482;9.206;2024-03-22T08:16:33;10.70;98.40
9820;DHT22;4949;48.482;9.206;2024-03-22T08:21:34;10.80;98.50
9820;DHT22;4949;48.482;9.206;2024-03-22T08:26:36;10.90;98.30
9820;DHT22;4949;48.482;9.206;2024-03-22T08:31:37;11.10;98.20
9820;DHT22;4949;48.482;9.206;2024-03-22T08:36:38;11.20;98.00
9820;DHT22;4949;48.482;9.206;2024-03-22T08:41:39;11.50;98.20
9820;DHT22;4949;48.482;9.206;2024-03-22T08:46:40;11.50;97.90
9820;DHT22;4949;48.482;9.206;2024-03-22T08:51:40;11.60;97.80
9820;DHT22;4949;48.482;9.206;2024-03-22T08:56:42;11.70;97.60
9820;DHT22;4949;48.482;9.206;2024-03-22T09:01:42;12.30;98.00
9820;DHT22;4949;48.482;9.206;2024-03-22T09:06:45;12.30;97.40
9820;DHT22;4949;48.482;9.206;2024-03-22T09:11:49;12.20;96.50
9820;DHT22;4949;48.482;9.206;2024-03-22T09:16:50;12.40;95.20
9820;DHT22;4949;48.482;9.206;2024-03-22T09:21:51;12.50;95.00
9820;DHT22;4949;48.482;9.206;2024-03-22T09:26:51;13.20;95.60
9820;DHT22;4949;48.482;9.206;2024-03-22T09:31:53;12.90;95.10
9820;DHT22;4949;48.482;9.206;2024-03-22T09:36:54;13.00;94.30
9820;DHT22;4949;48.482;9.206;2024-03-22T09:41:58;13.20;93.90
9820;DHT22;4949;48.482;9.206;2024-03-22T09:47:00;13.30;93.60
9820;DHT22;4949;48.482;9.206;2024-03-22T09:52:06;13.80;93.50
9820;DHT22;4949;48.482;9.206;2024-03-22T09:57:14;13.70;93.50
9820;DHT22;4949;48.482;9.206;2024-03-22T10:02:22;13.80;93.20
9820;DHT22;4949;48.482;9.206;2024-03-22T10:07:25;14.00;92.80
9820;DHT22;4949;48.482;9.206;2024-03-22T10:12:26;14.50;93.10
9820;DHT22;4949;48.482;9.206;2024-03-22T10:17:28;14.40;92.30
9820;DHT22;4949;48.482;9.206;2024-03-22T10:22:31;14.60;91.20
9820;DHT22;4949;48.482;9.206;2024-03-22T10:27:34;14.70;90.90
9820;DHT22;4949;48.482;9.206;2024-03-22T10:32:36;15.00;91.30
9820;DHT22;4949;48.482;9.206;2024-03-22T10:37:36;15.20;90.20
9820;DHT22;4949;48.482;9.206;2024-03-22T10:42:39;15.40;87.40
9820;DHT22;4949;48.482;9.206;2024-03-22T10:47:41;15.50;87.50
9820;DHT22;4949;48.482;9.206;2024-03-22T10:52:50;15.80;86.50
9820;DHT22;4949;48.482;9.206;2024-03-22T10:57:53;16.00;86.70
9820;DHT22;4949;48.482;9.206;2024-03-22T11:02:55;16.30;85.40
9820;DHT22;4949;48.482;9.206;2024-03-22T11:13:04;16.70;80.10
9820;DHT22;4949;48.482;9.206;2024-03-22T11:18:07;16.70;77.90
9820;DHT22;4949;48.482;9.206;2024-03-22T11:23:09;16.80;77.20
9820;DHT22;4949;48.482;9.206;2024-03-22T11:28:09;17.10;76.50
9820;DHT22;4949;48.482;9.206;2024-03-22T11:33:10;17.40;76.90
9820;DHT22;4949;48.482;9.206;2024-03-22T11:38:11;17.80;74.90
9820;DHT22;4949;48.482;9.206;2024-03-22T11:43:15;18.10;67.50
9820;DHT22;4949;48.482;9.206;2024-03-22T11:48:19;18.40;67.20
9820;DHT22;4949;48.482;9.206;2024-03-22T11:53:19;18.60;65.40
9820;DHT22;4949;48.482;9.206;2024-03-22T11:58:20;18.90;64.80
9820;DHT22;4949;48.482;9.206;2024-03-22T12:03:21;19.30;64.20
9820;DHT22;4949;48.482;9.206;2024-03-22T12:08:22;19.60;64.00
9820;DHT22;4949;48.482;9.206;2024-03-22T12:13:24;19.70;64.10
9820;DHT22;4949;48.482;9.206;2024-03-22T12:18:25;19.80;64.70
9820;DHT22;4949;48.482;9.206;2024-03-22T12:23:26;19.90;62.50
9820;DHT22;4949;48.482;9.206;2024-03-22T12:28:26;19.80;61.10
9820;DHT22;4949;48.482;9.206;2024-03-22T12:33:27;19.70;63.00
9820;DHT22;4949;48.482;9.206;2024-03-22T12:38:30;19.90;62.20
9820;DHT22;4949;48.482;9.206;2024-03-22T12:43:31;20.30;57.20
9820;DHT22;4949;48.482;9.206;2024-03-22T12:48:34;20.30;56.00
9820;DHT22;4949;48.482;9.206;2024-03-22T12:53:35;20.10;56.30
9820;DHT22;4949;48.482;9.206;2024-03-22T12:58:35;20.10;56.70
9820;DHT22;4949;48.482;9.206;2024-03-22T13:03:36;20.10;57.10
9820;DHT22;4949;48.482;9.206;2024-03-22T13:08:38;20.20;56.00
9820;DHT22;4949;48.482;9.206;2024-03-22T13:13:39;20.10;53.50
9820;DHT22;4949;48.482;9.206;2024-03-22T13:18:42;20.20;54.70
9820;DHT22;4949;48.482;9.206;2024-03-22T13:23:48;20.20;53.80
9820;DHT22;4949;48.482;9.206;2024-03-22T13:28:48;20.50;53.80
9820;DHT22;4949;48.482;9.206;2024-03-22T13:33:49;20.80;50.30
9820;DHT22;4949;48.482;9.206;2024-03-22T13:38:50;20.80;47.10
9820;DHT22;4949;48.482;9.206;2024-03-22T13:43:50;21.00;46.50
9820;DHT22;4949;48.482;9.206;2024-03-22T13:48:51;21.20;45.80
9820;DHT22;4949;48.482;9.206;2024-03-22T13:53:54;21.50;46.30
9820;DHT22;4949;48.482;9.206;2024-03-22T13:58:57;21.90;42.20
9820;DHT22;4949;48.482;9.206;2024-03-22T14:04:03;22.00;36.60
9820;DHT22;4949;48.482;9.206;2024-03-22T14:09:04;22.20;35.60
9820;DHT22;4949;48.482;9.206;2024-03-22T14:14:05;22.50;36.40
9820;DHT22;4949;48.482;9.206;2024-03-22T14:19:08;22.50;35.90
9820;DHT22;4949;48.482;9.206;2024-03-22T14:24:15;22.80;37.70
9820;DHT22;4949;48.482;9.206;2024-03-22T14:29:18;22.70;37.10
9820;DHT22;4949;48.482;9.206;2024-03-22T14:34:19;22.80;38.30
9820;DHT22;4949;48.482;9.206;2024-03-22T14:39:22;22.70;39.20
9820;DHT22;4949;48.482;9.206;2024-03-22T14:44:25;22.80;39.90
9820;DHT22;4949;48.482;9.206;2024-03-22T14:49:26;22.80;38.00
9820;DHT22;4949;48.482;9.206;2024-03-22T14:54:29;22.80;38.20
9820;DHT22;4949;48.482;9.206;2024-03-22T14:59:32;22.80;39.40
9820;DHT22;4949;48.482;9.206;2024-03-22T15:04:35;22.90;38.00
9820;DHT22;4949;48.482;9.206;2024-03-22T15:09:36;23.00;38.80
9820;DHT22;4949;48.482;9.206;2024-03-22T15:14:39;23.00;37.90
9820;DHT22;4949;48.482;9.206;2024-03-22T15:19:42;22.90;37.70
9820;DHT22;4949;48.482;9.206;2024-03-22T15:24:46;22.80;38.40
9820;DHT22;4949;48.482;9.206;2024-03-22T15:29:47;22.90;38.90
9820;DHT22;4949;48.482;9.206;2024-03-22T15:34:48;23.20;38.10
9820;DHT22;4949;48.482;9.206;2024-03-22T15:39:48;23.20;38.60
9820;DHT22;4949;48.482;9.206;2024-03-22T15:44:49;23.30;38.80
9820;DHT22;4949;48.482;9.206;2024-03-22T15:49:52;22.70;38.90
9820;DHT22;4949;48.482;9.206;2024-03-22T15:54:53;22.20;40.20
9820;DHT22;4949;48.482;9.206;2024-03-22T15:59:58;21.80;41.00
9820;DHT22;4949;48.482;9.206;2024-03-22T16:04:59;21.50;41.40
9820;DHT22;4949;48.482;9.206;2024-03-22T16:10:00;21.20;42.10
9820;DHT22;4949;48.482;9.206;2024-03-22T16:15:03;21.20;43.00
9820;DHT22;4949;48.482;9.206;2024-03-22T16:20:07;21.30;43.40
9820;DHT22;4949;48.482;9.206;2024-03-22T16:25:12;21.00;43.60
9820;DHT22;4949;48.482;9.206;2024-03-22T16:30:13;20.70;43.50
9820;DHT22;4949;48.482;9.206;2024-03-22T16:35:17;20.60;43.90
9820;DHT22;4949;48.482;9.206;2024-03-22T16:40:21;20.40;44.50
9820;DHT22;4949;48.482;9.206;2024-03-22T16:45:22;20.30;45.40
9820;DHT22;4949;48.482;9.206;2024-03-22T16:50:23;20.30;46.10
9820;DHT22;4949;48.482;9.206;2024-03-22T16:55:24;20.10;46.60
9820;DHT22;4949;48.482;9.206;2024-03-22T17:00:26;19.90;46.30
9820;DHT22;4949;48.482;9.206;2024-03-22T17:05:26;19.80;46.60
9820;DHT22;4949;48.482;9.206;2024-03-22T17:10:27;19.60;46.40
9820;DHT22;4949;48.482;9.206;2024-03-22T17:15:30;19.60;46.70
9820;DHT22;4949;48.482;9.206;2024-03-22T17:20:31;19.50;47.20
9820;DHT22;4949;48.482;9.206;2024-03-22T17:25:34;19.70;47.00
9820;DHT22;4949;48.482;9.206;2024-03-22T17:30:35;19.60;47.00
9820;DHT22;4949;48.482;9.206;2024-03-22T17:35:38;19.60;47.20
9820;DHT22;4949;48.482;9.206;2024-03-22T17:40:41;19.70;47.20
9820;DHT22;4949;48.482;9.206;2024-03-22T17:45:42;19.50;47.10
9820;DHT22;4949;48.482;9.206;2024-03-22T17:50:43;19.40;47.50
9820;DHT22;4949;48.482;9.206;2024-03-22T17:55:46;19.30;49.40
9820;DHT22;4949;48.482;9.206;2024-03-22T18:00:47;19.10;51.40
9820;DHT22;4949;48.482;9.206;2024-03-22T18:05:51;19.00;51.40
9820;DHT22;4949;48.482;9.206;2024-03-22T18:10:52;18.80;52.50
9820;DHT22;4949;48.482;9.206;2024-03-22T18:15:55;18.50;53.40
9820;DHT22;4949;48.482;9.206;2024-03-22T18:20:59;18.40;54.50
9820;DHT22;4949;48.482;9.206;2024-03-22T18:26:02;18.20;55.10
9820;DHT22;4949;48.482;9.206;2024-03-22T18:31:03;18.10;55.40
9820;DHT22;4949;48.482;9.206;2024-03-22T18:36:04;17.90;56.00
9820;DHT22;4949;48.482;9.206;2024-03-22T18:41:05;17.80;55.80
9820;DHT22;4949;48.482;9.206;2024-03-22T18:46:07;17.70;56.00
9820;DHT22;4949;48.482;9.206;2024-03-22T18:51:08;17.40;57.10
9820;DHT22;4949;48.482;9.206;2024-03-22T18:56:12;17.30;57.50
9820;DHT22;4949;48.482;9.206;2024-03-22T19:01:13;16.90;58.50
9820;DHT22;4949;48.482;9.206;2024-03-22T19:06:14;16.60;59.30
9820;DHT22;4949;48.482;9.206;2024-03-22T19:11:14;16.40;59.90
9820;DHT22;4949;48.482;9.206;2024-03-22T19:16:15;16.20;60.20
9820;DHT22;4949;48.482;9.206;2024-03-22T19:21:16;16.00;61.50
9820;DHT22;4949;48.482;9.206;2024-03-22T19:26:17;15.80;62.50
9820;DHT22;4949;48.482;9.206;2024-03-22T19:31:18;15.70;62.10
9820;DHT22;4949;48.482;9.206;2024-03-22T19:36:21;15.50;63.20
9820;DHT22;4949;48.482;9.206;2024-03-22T19:41:26;15.40;64.70
9820;DHT22;4949;48.482;9.206;2024-03-22T19:46:29;15.20;66.70
9820;DHT22;4949;48.482;9.206;2024-03-22T19:51:30;15.10;66.90
9820;DHT22;4949;48.482;9.206;2024-03-22T19:56:31;15.00;67.70
9820;DHT22;4949;48.482;9.206;2024-03-22T20:01:32;14.80;67.60
9820;DHT22;4949;48.482;9.206;2024-03-22T20:06:33;14.70;69.20
9820;DHT22;4949;48.482;9.206;2024-03-22T20:11:34;14.60;70.10
9820;DHT22;4949;48.482;9.206;2024-03-22T20:16:35;14.50;70.90
9820;DHT22;4949;48.482;9.206;2024-03-22T20:21:38;14.40;71.50
9820;DHT22;4949;48.482;9.206;2024-03-22T20:26:39;14.30;72.60
9820;DHT22;4949;48.482;9.206;2024-03-22T20:31:43;14.10;74.00
9820;DHT22;4949;48.482;9.206;2024-03-22T20:36:43;13.90;74.60
